sensor_id;sensor_type;location;lat;lon;timestamp;pressure;altitude;pressure_sealevel;temperature;humidity
8059;BME280;4072;42.668;23.396;2023-04-16T00:01:06;94558.69;;;11.95;73.97
8059;BME280;4072;42.668;23.396;2023-04-16T00:03:34;94556.59;;;11.89;73.00
8059;BME280;4072;42.668;23.396;2023-04-16T00:06:03;94560.41;;;11.68;73.36
8059;BME280;4072;42.668;23.396;2023-04-16T00:08:32;94555.13;;;11.50;73.76
8059;BME280;4072;42.668;23.396;2023-04-16T00:11:04;94556.41;;;11.40;74.15
8059;BME280;4072;42.668;23.396;2023-04-16T00:13:32;94560.28;;;11.48;73.63
8059;BME280;4072;42.668;23.396;2023-04-16T00:16:01;94557.91;;;11.41;73.48
8059;BME280;4072;42.668;23.396;2023-04-16T00:18:31;94541.81;;;11.23;73.87
8059;BME280;4072;42.668;23.396;2023-04-16T00:20:59;94555.84;;;11.36;73.65
8059;BME280;4072;42.668;23.396;2023-04-16T00:23:27;94493.13;;;10.76;74.09
8059;BME280;4072;42.668;23.396;2023-04-16T00:25:57;94553.22;;;11.27;74.27
8059;BME280;4072;42.668;23.396;2023-04-16T00:28:25;94555.91;;;11.27;72.98
8059;BME280;4072;42.668;23.396;2023-04-16T00:30:54;94562.25;;;11.24;73.67
8059;BME280;4072;42.668;23.396;2023-04-16T00:33:22;94551.47;;;11.15;75.81
8059;BME280;4072;42.668;23.396;2023-04-16T00:35:51;94551.22;;;10.90;74.98
8059;BME280;4072;42.668;23.396;2023-04-16T00:38:19;94550.97;;;10.79;76.19
8059;BME280;4072;42.668;23.396;2023-04-16T00:40:47;94548.06;;;10.91;76.08
8059;BME280;4072;42.668;23.396;2023-04-16T00:43:21;94547.44;;;10.87;77.57
8059;BME280;4072;42.668;23.396;2023-04-16T00:45:51;94539.75;;;10.71;78.85
8059;BME280;4072;42.668;23.396;2023-04-16T00:48:21;94543.38;;;10.68;79.90
8059;BME280;4072;42.668;23.396;2023-04-16T00:50:50;94537.31;;;10.73;81.10
8059;BME280;4072;42.668;23.396;2023-04-16T00:53:18;94549.34;;;10.72;80.48
8059;BME280;4072;42.668;23.396;2023-04-16T00:55:47;94455.63;;;10.04;80.45
8059;BME280;4072;42.668;23.396;2023-04-16T00:58:15;94545.81;;;10.57;81.35
8059;BME280;4072;42.668;23.396;2023-04-16T01:00:45;94542.25;;;10.51;81.46
8059;BME280;4072;42.668;23.396;2023-04-16T01:03:13;94545.53;;;10.55;81.38
8059;BME280;4072;42.668;23.396;2023-04-16T01:05:42;94537.00;;;10.48;82.14
8059;BME280;4072;42.668;23.396;2023-04-16T01:08:15;94543.16;;;10.48;82.23
8059;BME280;4072;42.668;23.396;2023-04-16T01:10:43;94539.53;;;10.51;81.28
8059;BME280;4072;42.668;23.396;2023-04-16T01:13:12;94543.75;;;10.52;80.40
8059;BME280;4072;42.668;23.396;2023-04-16T01:15:41;94543.66;;;10.38;80.84
8059;BME280;4072;42.668;23.396;2023-04-16T01:18:15;94539.25;;;10.49;79.75
8059;BME280;4072;42.668;23.396;2023-04-16T01:20:46;94539.84;;;10.53;79.67
8059;BME280;4072;42.668;23.396;2023-04-16T01:23:14;94540.56;;;10.54;79.96
8059;BME280;4072;42.668;23.396;2023-04-16T01:25:44;94546.16;;;10.50;80.13
8059;BME280;4072;42.668;23.396;2023-04-16T01:28:15;94531.38;;;10.28;80.24
8059;BME280;4072;42.668;23.396;2023-04-16T01:30:43;94534.53;;;10.35;79.84
8059;BME280;4072;42.668;23.396;2023-04-16T01:33:12;94498.56;;;10.02;80.20
8059;BME280;4072;42.668;23.396;2023-04-16T01:35:45;94542.38;;;10.24;80.55
8059;BME280;4072;42.668;23.396;2023-04-16T01:38:14;94544.47;;;10.20;80.30
8059;BME280;4072;42.668;23.396;2023-04-16T01:40:42;94546.25;;;10.23;80.45
8059;BME280;4072;42.668;23.396;2023-04-16T01:43:10;94536.16;;;10.33;79.62
8059;BME280;4072;42.668;23.396;2023-04-16T01:45:39;94502.03;;;10.12;79.28
8059;BME280;4072;42.668;23.396;2023-04-16T01:48:07;94536.63;;;10.31;79.31
8059;BME280;4072;42.668;23.396;2023-04-16T01:50:36;94534.84;;;10.28;80.00
8059;BME280;4072;42.668;23.396;2023-04-16T01:53:05;94525.53;;;10.29;80.48
8059;BME280;4072;42.668;23.396;2023-04-16T01:55:35;94537.56;;;10.19;82.24
8059;BME280;4072;42.668;23.396;2023-04-16T01:58:03;94531.16;;;10.08;83.58
8059;BME280;4072;42.668;23.396;2023-04-16T02:00:33;94538.19;;;10.05;84.21
8059;BME280;4072;42.668;23.396;2023-04-16T02:03:01;94527.69;;;9.98;84.41
8059;BME280;4072;42.668;23.396;2023-04-16T02:05:30;94528.91;;;10.06;83.61
8059;BME280;4072;42.668;23.396;2023-04-16T02:07:58;94532.50;;;10.12;83.60
8059;BME280;4072;42.668;23.396;2023-04-16T02:10:27;94521.09;;;10.08;82.87
8059;BME280;4072;42.668;23.396;2023-04-16T02:12:55;94443.13;;;9.74;82.20
8059;BME280;4072;42.668;23.396;2023-04-16T02:15:23;94514.53;;;10.33;82.12
8059;BME280;4072;42.668;23.396;2023-04-16T02:17:51;94524.28;;;10.39;82.20
8059;BME280;4072;42.668;23.396;2023-04-16T02:20:22;94516.66;;;10.29;82.62
8059;BME280;4072;42.668;23.396;2023-04-16T02:22:50;94520.69;;;10.33;82.69
8059;BME280;4072;42.668;23.396;2023-04-16T02:25:18;94511.97;;;10.38;82.34
8059;BME280;4072;42.668;23.396;2023-04-16T02:27:48;94518.69;;;10.43;82.28
8059;BME280;4072;42.668;23.396;2023-04-16T02:30:16;94514.97;;;10.40;82.99
8059;BME280;4072;42.668;23.396;2023-04-16T02:32:44;94522.16;;;10.43;83.97
8059;BME280;4072;42.668;23.396;2023-04-16T02:35:13;94520.22;;;10.44;84.39
8059;BME280;4072;42.668;23.396;2023-04-16T02:37:42;94517.06;;;10.45;85.25
8059;BME280;4072;42.668;23.396;2023-04-16T02:40:10;94520.38;;;10.40;86.60
8059;BME280;4072;42.668;23.396;2023-04-16T02:42:38;94515.53;;;10.44;87.34
8059;BME280;4072;42.668;23.396;2023-04-16T02:45:10;94512.22;;;10.49;87.97
8059;BME280;4072;42.668;23.396;2023-04-16T02:47:38;94515.19;;;10.51;88.92
8059;BME280;4072;42.668;23.396;2023-04-16T02:50:07;94509.22;;;10.47;89.81
8059;BME280;4072;42.668;23.396;2023-04-16T02:52:35;94505.63;;;10.41;90.79
8059;BME280;4072;42.668;23.396;2023-04-16T02:55:03;94508.97;;;10.36;91.97
8059;BME280;4072;42.668;23.396;2023-04-16T02:57:31;94502.41;;;10.28;93.50
8059;BME280;4072;42.668;23.396;2023-04-16T02:59:59;94508.84;;;10.31;93.78
8059;BME280;4072;42.668;23.396;2023-04-16T03:02:29;94508.41;;;10.32;94.05
8059;BME280;4072;42.668;23.396;2023-04-16T03:04:57;94501.50;;;10.31;94.37
8059;BME280;4072;42.668;23.396;2023-04-16T03:07:25;94499.06;;;10.33;94.77
8059;BME280;4072;42.668;23.396;2023-04-16T03:09:53;94507.94;;;10.34;94.70
8059;BME280;4072;42.668;23.396;2023-04-16T03:12:22;94508.41;;;10.32;95.49
8059;BME280;4072;42.668;23.396;2023-04-16T03:14:50;94510.22;;;10.26;96.10
8059;BME280;4072;42.668;23.396;2023-04-16T03:17:18;94521.34;;;10.19;96.74
8059;BME280;4072;42.668;23.396;2023-04-16T03:19:48;94510.06;;;10.30;96.21
8059;BME280;4072;42.668;23.396;2023-04-16T03:22:17;94516.38;;;10.27;96.55
8059;BME280;4072;42.668;23.396;2023-04-16T03:24:45;94512.22;;;10.17;97.30
8059;BME280;4072;42.668;23.396;2023-04-16T03:27:13;94504.56;;;10.15;97.90
8059;BME280;4072;42.668;23.396;2023-04-16T03:29:42;94521.41;;;10.01;98.36
8059;BME280;4072;42.668;23.396;2023-04-16T03:32:10;94473.28;;;9.73;99.65
8059;BME280;4072;42.668;23.396;2023-04-16T03:34:39;94512.72;;;9.97;100.00
8059;BME280;4072;42.668;23.396;2023-04-16T03:37:11;94505.06;;;9.87;100.00
8059;BME280;4072;42.668;23.396;2023-04-16T03:39:39;94514.66;;;10.06;100.00
8059;BME280;4072;42.668;23.396;2023-04-16T03:42:07;94509.25;;;10.06;100.00
8059;BME280;4072;42.668;23.396;2023-04-16T03:44:36;94486.59;;;9.94;99.97
8059;BME280;4072;42.668;23.396;2023-04-16T03:47:04;94513.69;;;10.18;99.06
8059;BME280;4072;42.668;23.396;2023-04-16T03:49:32;94507.47;;;10.35;96.33
8059;BME280;4072;42.668;23.396;2023-04-16T03:52:00;94519.13;;;10.50;92.51
8059;BME280;4072;42.668;23.396;2023-04-16T03:54:30;94521.41;;;10.66;91.05
8059;BME280;4072;42.668;23.396;2023-04-16T03:56:58;94508.41;;;10.56;90.56
8059;BME280;4072;42.668;23.396;2023-04-16T03:59:26;94509.78;;;10.51;86.10
8059;BME280;4072;42.668;23.396;2023-04-16T04:01:55;94523.56;;;10.62;86.02
8059;BME280;4072;42.668;23.396;2023-04-16T04:04:23;94524.88;;;10.34;89.75
8059;BME280;4072;42.668;23.396;2023-04-16T04:06:51;94527.94;;;10.27;89.89
8059;BME280;4072;42.668;23.396;2023-04-16T04:09:19;94528.56;;;10.22;94.55
8059;BME280;4072;42.668;23.396;2023-04-16T04:11:49;94532.75;;;10.23;93.42
8059;BME280;4072;42.668;23.396;2023-04-16T04:14:17;94503.06;;;10.14;91.60
8059;BME280;4072;42.668;23.396;2023-04-16T04:16:45;94535.50;;;10.47;88.84
8059;BME280;4072;42.668;23.396;2023-04-16T04:19:13;94548.56;;;10.48;86.67
8059;BME280;4072;42.668;23.396;2023-04-16T04:21:41;94548.16;;;10.41;90.20
8059;BME280;4072;42.668;23.396;2023-04-16T04:24:16;94537.34;;;10.41;92.57
8059;BME280;4072;42.668;23.396;2023-04-16T04:26:44;94547.06;;;10.47;93.36
8059;BME280;4072;42.668;23.396;2023-04-16T04:29:14;94545.34;;;10.35;94.99
8059;BME280;4072;42.668;23.396;2023-04-16T04:31:42;94564.13;;;10.30;96.56
8059;BME280;4072;42.668;23.396;2023-04-16T04:34:11;94553.81;;;10.01;100.00
8059;BME280;4072;42.668;23.396;2023-04-16T04:36:39;94557.50;;;9.71;100.00
8059;BME280;4072;42.668;23.396;2023-04-16T04:39:08;94568.00;;;9.60;100.00
8059;BME280;4072;42.668;23.396;2023-04-16T04:41:36;94564.38;;;9.63;100.00
8059;BME280;4072;42.668;23.396;2023-04-16T04:44:04;94560.50;;;9.64;100.00
8059;BME280;4072;42.668;23.396;2023-04-16T04:46:33;94570.25;;;9.62;100.00
8059;BME280;4072;42.668;23.396;2023-04-16T04:49:03;94570.38;;;9.67;100.00
8059;BME280;4072;42.668;23.396;2023-04-16T04:51:31;94574.91;;;9.61;100.00
8059;BME280;4072;42.668;23.396;2023-04-16T04:53:59;94561.09;;;9.59;100.00
8059;BME280;4072;42.668;23.396;2023-04-16T04:56:28;94577.59;;;9.52;100.00
8059;BME280;4072;42.668;23.396;2023-04-16T04:58:56;94574.75;;;9.56;100.00
8059;BME280;4072;42.668;23.396;2023-04-16T05:01:24;94528.13;;;9.37;100.00
8059;BME280;4072;42.668;23.396;2023-04-16T05:03:54;94569.78;;;9.63;100.00
8059;BME280;4072;42.668;23.396;2023-04-16T05:06:22;94576.84;;;9.70;100.00
8059;BME280;4072;42.668;23.396;2023-04-16T05:08:54;94577.47;;;9.56;100.00
8059;BME280;4072;42.668;23.396;2023-04-16T05:11:22;94550.03;;;9.39;100.00
8059;BME280;4072;42.668;23.396;2023-04-16T05:13:50;94559.03;;;9.36;100.00
8059;BME280;4072;42.668;23.396;2023-04-16T05:16:18;94552.41;;;9.28;100.00
8059;BME280;4072;42.668;23.396;2023-04-16T05:18:46;94567.88;;;9.28;100.00
8059;BME280;4072;42.668;23.396;2023-04-16T05:21:15;94556.59;;;9.20;100.00
8059;BME280;4072;42.668;23.396;2023-04-16T05:23:43;94562.31;;;9.22;100.00
8059;BME280;4072;42.668;23.396;2023-04-16T05:26:12;94538.31;;;9.24;100.00
8059;BME280;4072;42.668;23.396;2023-04-16T05:28:39;94572.78;;;9.56;100.00
8059;BME280;4072;42.668;23.396;2023-04-16T05:31:08;94570.09;;;9.65;100.00
8059;BME280;4072;42.668;23.396;2023-04-16T05:33:36;94562.41;;;9.82;100.00
8059;BME280;4072;42.668;23.396;2023-04-16T05:36:04;94566.16;;;9.93;100.00
8059;BME280;4072;42.668;23.396;2023-04-16T05:38:33;94566.72;;;10.06;100.00
8059;BME280;4072;42.668;23.396;2023-04-16T05:41:02;94567.19;;;10.05;100.00
8059;BME280;4072;42.668;23.396;2023-04-16T05:43:31;94556.53;;;10.10;100.00
8059;BME280;4072;42.668;23.396;2023-04-16T05:45:59;94552.31;;;10.00;100.00
8059;BME280;4072;42.668;23.396;2023-04-16T05:48:27;94558.38;;;9.86;100.00
8059;BME280;4072;42.668;23.396;2023-04-16T05:50:55;94563.59;;;9.90;100.00
8059;BME280;4072;42.668;23.396;2023-04-16T05:53:24;94561.63;;;9.99;100.00
8059;BME280;4072;42.668;23.396;2023-04-16T05:55:53;94557.28;;;9.93;100.00
8059;BME280;4072;42.668;23.396;2023-04-16T05:58:21;94553.56;;;9.90;100.00
8059;BME280;4072;42.668;23.396;2023-04-16T06:00:51;94566.88;;;10.03;100.00
8059;BME280;4072;42.668;23.396;2023-04-16T06:03:19;94563.25;;;10.15;100.00
8059;BME280;4072;42.668;23.396;2023-04-16T06:05:47;94563.72;;;10.04;100.00
8059;BME280;4072;42.668;23.396;2023-04-16T06:08:15;94559.22;;;10.01;100.00
8059;BME280;4072;42.668;23.396;2023-04-16T06:10:45;94559.81;;;10.05;100.00
8059;BME280;4072;42.668;23.396;2023-04-16T06:13:15;94558.88;;;10.26;100.00
8059;BME280;4072;42.668;23.396;2023-04-16T06:15:45;94540.44;;;10.48;100.00
8059;BME280;4072;42.668;23.396;2023-04-16T06:18:13;94549.56;;;10.60;100.00
8059;BME280;4072;42.668;23.396;2023-04-16T06:20:41;94554.31;;;10.74;100.00
8059;BME280;4072;42.668;23.396;2023-04-16T06:23:10;94554.03;;;10.95;99.91
8059;BME280;4072;42.668;23.396;2023-04-16T06:25:38;94563.44;;;10.76;99.80
8059;BME280;4072;42.668;23.396;2023-04-16T06:28:06;94555.09;;;10.65;100.00
8059;BME280;4072;42.668;23.396;2023-04-16T06:30:36;94502.00;;;10.44;100.00
8059;BME280;4072;42.668;23.396;2023-04-16T06:33:04;94556.09;;;11.00;99.27
8059;BME280;4072;42.668;23.396;2023-04-16T06:35:32;94550.28;;;10.93;98.16
8059;BME280;4072;42.668;23.396;2023-04-16T06:38:00;94550.63;;;11.09;97.29
8059;BME280;4072;42.668;23.396;2023-04-16T06:40:29;94552.91;;;11.25;94.94
8059;BME280;4072;42.668;23.396;2023-04-16T06:42:57;94545.09;;;11.27;91.95
8059;BME280;4072;42.668;23.396;2023-04-16T06:45:25;94550.41;;;11.36;93.77
8059;BME280;4072;42.668;23.396;2023-04-16T06:47:56;94553.84;;;11.60;93.50
8059;BME280;4072;42.668;23.396;2023-04-16T06:50:25;94555.38;;;12.05;91.42
8059;BME280;4072;42.668;23.396;2023-04-16T06:52:54;94565.75;;;12.36;88.09
8059;BME280;4072;42.668;23.396;2023-04-16T06:55:22;94552.47;;;12.52;86.15
8059;BME280;4072;42.668;23.396;2023-04-16T06:57:50;94551.03;;;12.57;84.26
8059;BME280;4072;42.668;23.396;2023-04-16T07:00:18;94550.38;;;12.62;83.31
8059;BME280;4072;42.668;23.396;2023-04-16T07:02:46;94554.88;;;12.65;83.12
8059;BME280;4072;42.668;23.396;2023-04-16T07:05:16;94550.16;;;12.65;82.21
8059;BME280;4072;42.668;23.396;2023-04-16T07:07:44;94554.22;;;12.55;83.11
8059;BME280;4072;42.668;23.396;2023-04-16T07:10:11;94547.13;;;12.58;81.77
8059;BME280;4072;42.668;23.396;2023-04-16T07:12:40;94541.84;;;12.69;83.57
8059;BME280;4072;42.668;23.396;2023-04-16T07:15:09;94552.47;;;12.87;83.63
8059;BME280;4072;42.668;23.396;2023-04-16T07:17:37;94556.59;;;12.82;84.90
8059;BME280;4072;42.668;23.396;2023-04-16T07:20:07;94560.44;;;12.76;85.21
8059;BME280;4072;42.668;23.396;2023-04-16T07:22:37;94553.44;;;12.69;88.26
8059;BME280;4072;42.668;23.396;2023-04-16T07:25:06;94556.22;;;12.75;89.67
8059;BME280;4072;42.668;23.396;2023-04-16T07:27:36;94551.47;;;13.04;87.50
8059;BME280;4072;42.668;23.396;2023-04-16T07:30:05;94547.78;;;13.67;82.68
8059;BME280;4072;42.668;23.396;2023-04-16T07:32:34;94558.34;;;14.11;79.00
8059;BME280;4072;42.668;23.396;2023-04-16T07:35:03;94553.72;;;14.48;75.69
8059;BME280;4072;42.668;23.396;2023-04-16T07:37:32;94562.56;;;14.68;74.97
8059;BME280;4072;42.668;23.396;2023-04-16T07:40:01;94547.75;;;14.75;75.08
8059;BME280;4072;42.668;23.396;2023-04-16T07:42:30;94547.91;;;14.66;74.66
8059;BME280;4072;42.668;23.396;2023-04-16T07:44:58;94541.72;;;14.29;79.48
8059;BME280;4072;42.668;23.396;2023-04-16T07:47:26;94552.06;;;14.25;82.49
8059;BME280;4072;42.668;23.396;2023-04-16T07:49:54;94550.34;;;14.02;81.11
8059;BME280;4072;42.668;23.396;2023-04-16T07:52:22;94554.81;;;14.05;85.49
8059;BME280;4072;42.668;23.396;2023-04-16T07:54:50;94553.25;;;13.93;85.46
8059;BME280;4072;42.668;23.396;2023-04-16T07:57:20;94548.53;;;13.68;86.92
8059;BME280;4072;42.668;23.396;2023-04-16T07:59:48;94553.34;;;13.78;87.48
8059;BME280;4072;42.668;23.396;2023-04-16T08:02:16;94542.25;;;13.82;86.87
8059;BME280;4072;42.668;23.396;2023-04-16T08:04:44;94550.88;;;14.06;86.22
8059;BME280;4072;42.668;23.396;2023-04-16T08:07:12;94545.25;;;14.35;83.72
8059;BME280;4072;42.668;23.396;2023-04-16T08:09:46;94550.09;;;14.93;80.35
8059;BME280;4072;42.668;23.396;2023-04-16T08:12:15;94537.41;;;15.32;75.71
8059;BME280;4072;42.668;23.396;2023-04-16T08:14:45;94452.63;;;15.19;73.44
8059;BME280;4072;42.668;23.396;2023-04-16T08:17:13;94484.38;;;15.33;72.58
8059;BME280;4072;42.668;23.396;2023-04-16T08:19:42;94520.69;;;15.72;72.03
8059;BME280;4072;42.668;23.396;2023-04-16T08:22:11;94503.84;;;15.79;69.17
8059;BME280;4072;42.668;23.396;2023-04-16T08:24:39;94523.88;;;15.54;67.08
8059;BME280;4072;42.668;23.396;2023-04-16T08:27:08;94530.13;;;15.71;68.08
8059;BME280;4072;42.668;23.396;2023-04-16T08:29:48;94525.44;;;15.77;69.40
8059;BME280;4072;42.668;23.396;2023-04-16T08:32:16;94520.22;;;15.74;68.37
8059;BME280;4072;42.668;23.396;2023-04-16T08:34:44;94520.78;;;16.05;66.54
8059;BME280;4072;42.668;23.396;2023-04-16T08:37:14;94512.34;;;16.20;67.25
8059;BME280;4072;42.668;23.396;2023-04-16T08:39:42;94512.13;;;16.51;65.97
8059;BME280;4072;42.668;23.396;2023-04-16T08:42:16;94516.84;;;16.61;64.36
8059;BME280;4072;42.668;23.396;2023-04-16T08:44:48;94510.13;;;16.62;64.91
8059;BME280;4072;42.668;23.396;2023-04-16T08:47:20;94505.66;;;16.65;64.78
8059;BME280;4072;42.668;23.396;2023-04-16T08:49:51;94497.72;;;16.61;65.56
8059;BME280;4072;42.668;23.396;2023-04-16T08:52:24;94498.72;;;16.64;62.11
8059;BME280;4072;42.668;23.396;2023-04-16T08:55:03;94501.88;;;16.84;61.43
8059;BME280;4072;42.668;23.396;2023-04-16T08:57:38;94501.19;;;16.56;61.45
8059;BME280;4072;42.668;23.396;2023-04-16T09:00:13;94498.47;;;16.45;62.63
8059;BME280;4072;42.668;23.396;2023-04-16T09:02:42;94493.00;;;16.45;64.15
8059;BME280;4072;42.668;23.396;2023-04-16T09:05:14;94496.47;;;16.62;62.34
8059;BME280;4072;42.668;23.396;2023-04-16T09:07:45;94492.03;;;16.48;61.97
8059;BME280;4072;42.668;23.396;2023-04-16T09:10:14;94497.75;;;16.50;61.81
8059;BME280;4072;42.668;23.396;2023-04-16T09:12:42;94487.53;;;16.01;62.96
8059;BME280;4072;42.668;23.396;2023-04-16T09:15:14;94482.03;;;15.68;65.30
8059;BME280;4072;42.668;23.396;2023-04-16T09:17:42;94492.75;;;15.99;65.75
8059;BME280;4072;42.668;23.396;2023-04-16T09:20:10;94485.78;;;16.31;63.42
8059;BME280;4072;42.668;23.396;2023-04-16T09:22:38;94490.00;;;16.21;61.85
8059;BME280;4072;42.668;23.396;2023-04-16T09:25:07;94486.56;;;16.10;62.77
8059;BME280;4072;42.668;23.396;2023-04-16T09:27:36;94485.56;;;16.18;62.66
8059;BME280;4072;42.668;23.396;2023-04-16T09:30:21;94484.31;;;16.47;62.30
8059;BME280;4072;42.668;23.396;2023-04-16T09:32:51;94488.78;;;16.61;60.17
8059;BME280;4072;42.668;23.396;2023-04-16T09:35:19;94487.22;;;16.87;59.59
8059;BME280;4072;42.668;23.396;2023-04-16T09:37:55;94481.59;;;16.52;60.03
8059;BME280;4072;42.668;23.396;2023-04-16T09:40:25;94484.09;;;16.50;60.87
8059;BME280;4072;42.668;23.396;2023-04-16T09:42:56;94478.25;;;17.03;59.13
8059;BME280;4072;42.668;23.396;2023-04-16T09:45:31;94471.13;;;17.41;57.17
8059;BME280;4072;42.668;23.396;2023-04-16T09:48:03;94472.28;;;17.68;56.54
8059;BME280;4072;42.668;23.396;2023-04-16T09:50:31;94470.88;;;17.91;55.75
8059;BME280;4072;42.668;23.396;2023-04-16T09:53:01;94452.50;;;18.21;54.56
8059;BME280;4072;42.668;23.396;2023-04-16T09:55:31;94476.28;;;18.31;53.07
8059;BME280;4072;42.668;23.396;2023-04-16T09:58:00;94465.25;;;18.42;52.46
8059;BME280;4072;42.668;23.396;2023-04-16T10:00:30;94464.28;;;18.40;53.05
8059;BME280;4072;42.668;23.396;2023-04-16T10:03:02;94462.78;;;18.09;52.28
8059;BME280;4072;42.668;23.396;2023-04-16T10:05:31;94454.19;;;17.54;53.55
8059;BME280;4072;42.668;23.396;2023-04-16T10:07:59;94452.50;;;17.39;55.04
8059;BME280;4072;42.668;23.396;2023-04-16T10:10:28;94449.47;;;17.48;54.73
8059;BME280;4072;42.668;23.396;2023-04-16T10:12:56;94451.06;;;17.27;55.18
8059;BME280;4072;42.668;23.396;2023-04-16T10:15:24;94448.13;;;17.20;54.10
8059;BME280;4072;42.668;23.396;2023-04-16T10:17:55;94441.16;;;17.19;55.45
8059;BME280;4072;42.668;23.396;2023-04-16T10:20:25;94440.66;;;17.20;54.91
8059;BME280;4072;42.668;23.396;2023-04-16T10:22:53;94436.88;;;17.29;53.61
8059;BME280;4072;42.668;23.396;2023-04-16T10:25:22;94442.81;;;17.33;53.94
8059;BME280;4072;42.668;23.396;2023-04-16T10:27:52;94442.81;;;17.44;53.88
8059;BME280;4072;42.668;23.396;2023-04-16T10:30:21;94441.72;;;17.93;52.24
8059;BME280;4072;42.668;23.396;2023-04-16T10:32:50;94443.19;;;18.00;51.49
8059;BME280;4072;42.668;23.396;2023-04-16T10:35:20;94435.75;;;17.95;50.96
8059;BME280;4072;42.668;23.396;2023-04-16T10:37:48;94430.38;;;17.84;51.08
8059;BME280;4072;42.668;23.396;2023-04-16T10:40:25;94404.66;;;17.63;51.88
8059;BME280;4072;42.668;23.396;2023-04-16T10:42:56;94430.91;;;17.77;51.50
8059;BME280;4072;42.668;23.396;2023-04-16T10:45:26;94433.97;;;17.68;51.82
8059;BME280;4072;42.668;23.396;2023-04-16T10:47:56;94432.13;;;17.81;51.11
8059;BME280;4072;42.668;23.396;2023-04-16T10:50:33;94427.47;;;18.06;51.59
8059;BME280;4072;42.668;23.396;2023-04-16T10:53:18;94411.06;;;18.30;49.89
8059;BME280;4072;42.668;23.396;2023-04-16T10:55:57;94433.34;;;18.50;49.93
8059;BME280;4072;42.668;23.396;2023-04-16T10:58:29;94428.06;;;19.00;47.82
8059;BME280;4072;42.668;23.396;2023-04-16T11:00:58;94425.50;;;18.84;47.98
8059;BME280;4072;42.668;23.396;2023-04-16T11:03:29;94415.00;;;18.88;48.60
8059;BME280;4072;42.668;23.396;2023-04-16T11:06:12;94411.00;;;18.89;48.52
8059;BME280;4072;42.668;23.396;2023-04-16T11:08:43;94415.34;;;18.55;49.09
8059;BME280;4072;42.668;23.396;2023-04-16T11:11:14;94412.09;;;18.56;49.34
8059;BME280;4072;42.668;23.396;2023-04-16T11:13:43;94379.25;;;18.03;49.20
8059;BME280;4072;42.668;23.396;2023-04-16T11:16:13;94417.22;;;18.12;49.45
8059;BME280;4072;42.668;23.396;2023-04-16T11:18:41;94412.94;;;17.87;50.02
8059;BME280;4072;42.668;23.396;2023-04-16T11:21:19;94406.13;;;17.99;50.43
8059;BME280;4072;42.668;23.396;2023-04-16T11:23:48;94398.41;;;18.27;49.44
8059;BME280;4072;42.668;23.396;2023-04-16T11:26:25;94399.84;;;18.33;49.46
8059;BME280;4072;42.668;23.396;2023-04-16T11:28:54;94354.84;;;18.29;49.02
8059;BME280;4072;42.668;23.396;2023-04-16T11:31:23;94389.28;;;18.72;47.54
8059;BME280;4072;42.668;23.396;2023-04-16T11:33:54;94388.53;;;18.48;48.12
8059;BME280;4072;42.668;23.396;2023-04-16T11:36:24;94388.72;;;18.26;48.23
8059;BME280;4072;42.668;23.396;2023-04-16T11:39:00;94387.00;;;18.23;47.97
8059;BME280;4072;42.668;23.396;2023-04-16T11:41:29;94371.94;;;18.11;48.53
8059;BME280;4072;42.668;23.396;2023-04-16T11:43:57;94370.25;;;18.32;48.15
8059;BME280;4072;42.668;23.396;2023-04-16T11:46:37;94377.19;;;18.33;48.35
8059;BME280;4072;42.668;23.396;2023-04-16T11:49:06;94367.38;;;18.19;48.67
8059;BME280;4072;42.668;23.396;2023-04-16T11:51:40;94375.78;;;18.26;48.80
8059;BME280;4072;42.668;23.396;2023-04-16T11:54:08;94357.84;;;18.25;48.38
8059;BME280;4072;42.668;23.396;2023-04-16T11:56:37;94358.66;;;18.20;48.41
8059;BME280;4072;42.668;23.396;2023-04-16T11:59:13;94348.53;;;18.39;48.80
8059;BME280;4072;42.668;23.396;2023-04-16T12:01:45;94349.53;;;18.42;48.67
8059;BME280;4072;42.668;23.396;2023-04-16T12:04:14;94343.91;;;18.53;48.61
8059;BME280;4072;42.668;23.396;2023-04-16T12:07:05;94342.03;;;18.42;48.27
8059;BME280;4072;42.668;23.396;2023-04-16T12:09:34;94337.13;;;18.35;48.45
8059;BME280;4072;42.668;23.396;2023-04-16T12:12:06;94330.66;;;18.57;48.00
8059;BME280;4072;42.668;23.396;2023-04-16T12:14:52;94312.03;;;18.74;47.35
8059;BME280;4072;42.668;23.396;2023-04-16T12:17:20;94302.41;;;19.04;46.53
8059;BME280;4072;42.668;23.396;2023-04-16T12:19:50;94321.88;;;19.56;45.32
8059;BME280;4072;42.668;23.396;2023-04-16T12:22:27;94319.94;;;19.83;44.64
8059;BME280;4072;42.668;23.396;2023-04-16T12:24:57;94311.53;;;19.62;45.11
8059;BME280;4072;42.668;23.396;2023-04-16T12:27:40;94316.34;;;19.25;46.93
8059;BME280;4072;42.668;23.396;2023-04-16T12:30:11;94262.34;;;17.98;53.65
8059;BME280;4072;42.668;23.396;2023-04-16T12:32:41;94316.66;;;17.88;54.72
8059;BME280;4072;42.668;23.396;2023-04-16T12:35:10;94312.56;;;17.41;52.97
8059;BME280;4072;42.668;23.396;2023-04-16T12:37:40;94317.13;;;17.27;54.99
8059;BME280;4072;42.668;23.396;2023-04-16T12:40:09;94301.78;;;17.54;57.17
8059;BME280;4072;42.668;23.396;2023-04-16T12:42:38;94303.69;;;17.65;57.88
8059;BME280;4072;42.668;23.396;2023-04-16T12:45:06;94298.47;;;17.91;54.03
8059;BME280;4072;42.668;23.396;2023-04-16T12:47:35;94302.72;;;18.16;52.54
8059;BME280;4072;42.668;23.396;2023-04-16T12:50:05;94305.19;;;18.62;54.63
8059;BME280;4072;42.668;23.396;2023-04-16T12:52:34;94306.84;;;18.89;51.57
8059;BME280;4072;42.668;23.396;2023-04-16T12:55:04;94304.19;;;19.02;49.99
8059;BME280;4072;42.668;23.396;2023-04-16T12:57:33;94298.69;;;19.39;49.55
8059;BME280;4072;42.668;23.396;2023-04-16T13:00:01;94289.22;;;19.21;49.81
8059;BME280;4072;42.668;23.396;2023-04-16T13:02:32;94294.84;;;19.29;48.88
8059;BME280;4072;42.668;23.396;2023-04-16T13:05:01;94287.00;;;19.20;48.20
8059;BME280;4072;42.668;23.396;2023-04-16T13:07:29;94276.16;;;19.46;48.46
8059;BME280;4072;42.668;23.396;2023-04-16T13:09:59;94281.25;;;19.68;46.78
8059;BME280;4072;42.668;23.396;2023-04-16T13:12:29;94284.16;;;19.44;46.66
8059;BME280;4072;42.668;23.396;2023-04-16T13:14:58;94273.03;;;19.55;46.87
8059;BME280;4072;42.668;23.396;2023-04-16T13:17:26;94264.38;;;19.64;46.44
8059;BME280;4072;42.668;23.396;2023-04-16T13:19:54;94287.78;;;19.52;46.79
8059;BME280;4072;42.668;23.396;2023-04-16T13:22:23;94226.88;;;19.22;46.96